sensor_id;sensor_type;location;lat;lon;timestamp;temperature;humidity
44447;DHT22;30152;52.066;5.358;2022-10-22T07:20:58;13.60;99.90
44447;DHT22;30152;52.066;5.358;2022-10-22T07:23:24;14.00;99.90
44447;DHT22;30152;52.066;5.358;2022-10-22T07:33:08;14.00;99.90
44447;DHT22;30152;52.066;5.358;2022-10-22T07:35:36;14.00;99.90
44447;DHT22;30152;52.066;5.358;2022-10-22T07:38:04;13.90;99.90
44447;DHT22;30152;52.066;5.358;2022-10-22T08:02:24;14.50;99.90
44447;DHT22;30152;52.066;5.358;2022-10-22T08:07:16;14.70;99.90
44447;DHT22;30152;52.066;5.358;2022-10-22T08:09:42;14.40;99.90
44447;DHT22;30152;52.066;5.358;2022-10-22T08:19:26;15.50;99.90
44447;DHT22;30152;52.066;5.358;2022-10-22T08:38:55;15.30;99.90
44447;DHT22;30152;52.066;5.358;2022-10-22T08:41:22;14.90;99.90
44447;DHT22;30152;52.066;5.358;2022-10-22T08:47:08;15.00;99.90
44447;DHT22;30152;52.066;5.358;2022-10-22T08:49:39;14.40;99.90
44447;DHT22;30152;52.066;5.358;2022-10-22T08:52:10;15.10;99.90
44447;DHT22;30152;52.066;5.358;2022-10-22T09:00:05;15.20;99.90
44447;DHT22;30152;52.066;5.358;2022-10-22T09:10:16;15.20;99.90
44447;DHT22;30152;52.066;5.358;2022-10-22T09:12:42;15.50;99.90
44447;DHT22;30152;52.066;5.358;2022-10-22T09:15:12;14.90;99.90
44447;DHT22;30152;52.066;5.358;2022-10-22T09:17:49;15.30;99.90
44447;DHT22;30152;52.066;5.358;2022-10-22T09:20:37;15.40;99.90
44447;DHT22;30152;52.066;5.358;2022-10-22T09:25:48;15.50;99.90
44447;DHT22;30152;52.066;5.358;2022-10-22T09:28:14;15.20;99.90
44447;DHT22;30152;52.066;5.358;2022-10-22T09:30:40;15.10;99.90
44447;DHT22;30152;52.066;5.358;2022-10-22T09:35:54;15.70;99.90
44447;DHT22;30152;52.066;5.358;2022-10-22T09:38:28;15.90;99.90
44447;DHT22;30152;52.066;5.358;2022-10-22T09:40:56;16.10;99.90
44447;DHT22;30152;52.066;5.358;2022-10-22T09:43:23;15.90;99.90
44447;DHT22;30152;52.066;5.358;2022-10-22T09:45:58;16.20;99.90
44447;DHT22;30152;52.066;5.358;2022-10-22T09:48:30;16.20;99.90
44447;DHT22;30152;52.066;5.358;2022-10-22T09:53:35;16.40;99.90
44447;DHT22;30152;52.066;5.358;2022-10-22T09:56:07;16.40;99.90
44447;DHT22;30152;52.066;5.358;2022-10-22T09:58:44;16.20;99.90
44447;DHT22;30152;52.066;5.358;2022-10-22T10:01:33;16.40;99.90
44447;DHT22;30152;52.066;5.358;2022-10-22T10:04:07;16.60;99.90
44447;DHT22;30152;52.066;5.358;2022-10-22T10:06:35;16.40;99.90
44447;DHT22;30152;52.066;5.358;2022-10-22T10:09:01;16.40;99.90
44447;DHT22;30152;52.066;5.358;2022-10-22T10:14:50;16.50;99.90
44447;DHT22;30152;52.066;5.358;2022-10-22T10:20:27;16.60;99.90
44447;DHT22;30152;52.066;5.358;2022-10-22T10:23:11;16.70;99.90
44447;DHT22;30152;52.066;5.358;2022-10-22T10:33:46;16.80;99.90
44447;DHT22;30152;52.066;5.358;2022-10-22T10:36:48;16.80;99.90
44447;DHT22;30152;52.066;5.358;2022-10-22T10:39:41;17.00;99.90
44447;DHT22;30152;52.066;5.358;2022-10-22T10:42:23;16.90;99.90
44447;DHT22;30152;52.066;5.358;2022-10-22T10:45:02;17.10;99.90
44447;DHT22;30152;52.066;5.358;2022-10-22T10:50:25;17.30;99.90
44447;DHT22;30152;52.066;5.358;2022-10-22T10:53:39;17.20;99.90
44447;DHT22;30152;52.066;5.358;2022-10-22T11:04:53;17.30;99.90
44447;DHT22;30152;52.066;5.358;2022-10-22T11:07:27;17.40;99.90
44447;DHT22;30152;52.066;5.358;2022-10-22T11:10:02;17.60;99.90
44447;DHT22;30152;52.066;5.358;2022-10-22T11:12:33;17.30;99.90
44447;DHT22;30152;52.066;5.358;2022-10-22T11:17:34;17.30;99.90
44447;DHT22;30152;52.066;5.358;2022-10-22T11:20:18;17.40;99.90
44447;DHT22;30152;52.066;5.358;2022-10-22T11:22:50;17.60;99.90
44447;DHT22;30152;52.066;5.358;2022-10-22T11:25:21;17.30;99.90
44447;DHT22;30152;52.066;5.358;2022-10-22T11:27:55;17.60;99.90
44447;DHT22;30152;52.066;5.358;2022-10-22T11:30:25;17.60;99.90
44447;DHT22;30152;52.066;5.358;2022-10-22T11:32:56;17.50;99.90
44447;DHT22;30152;52.066;5.358;2022-10-22T11:35:27;17.40;99.90
44447;DHT22;30152;52.066;5.358;2022-10-22T11:37:56;17.30;99.90
44447;DHT22;30152;52.066;5.358;2022-10-22T11:42:58;17.80;99.90
44447;DHT22;30152;52.066;5.358;2022-10-22T11:45:30;17.90;99.90
44447;DHT22;30152;52.066;5.358;2022-10-22T11:50:49;18.10;99.90
44447;DHT22;30152;52.066;5.358;2022-10-22T11:55:53;17.80;99.90
44447;DHT22;30152;52.066;5.358;2022-10-22T12:08:31;17.50;99.90
44447;DHT22;30152;52.066;5.358;2022-10-22T12:21:37;17.40;99.90
44447;DHT22;30152;52.066;5.358;2022-10-22T12:24:04;17.40;99.90
44447;DHT22;30152;52.066;5.358;2022-10-22T12:26:32;17.30;99.90
44447;DHT22;30152;52.066;5.358;2022-10-22T12:29:05;17.50;99.90
44447;DHT22;30152;52.066;5.358;2022-10-22T12:31:37;17.50;99.90
44447;DHT22;30152;52.066;5.358;2022-10-22T12:34:05;17.80;99.90
44447;DHT22;30152;52.066;5.358;2022-10-22T12:36:33;18.80;99.90
44447;DHT22;30152;52.066;5.358;2022-10-22T12:39:00;18.30;99.90
44447;DHT22;30152;52.066;5.358;2022-10-22T12:41:34;18.30;99.90
44447;DHT22;30152;52.066;5.358;2022-10-22T12:44:02;18.50;99.90
44447;DHT22;30152;52.066;5.358;2022-10-22T12:46:30;18.30;99.90
44447;DHT22;30152;52.066;5.358;2022-10-22T12:49:03;18.40;99.90
44447;DHT22;30152;52.066;5.358;2022-10-22T12:51:30;18.30;99.90
44447;DHT22;30152;52.066;5.358;2022-10-22T12:54:02;18.60;99.90
44447;DHT22;30152;52.066;5.358;2022-10-22T12:56:32;18.20;99.90
44447;DHT22;30152;52.066;5.358;2022-10-22T12:59:20;18.40;99.90
44447;DHT22;30152;52.066;5.358;2022-10-22T13:01:48;18.40;99.90
44447;DHT22;30152;52.066;5.358;2022-10-22T13:07:17;18.20;99.90
44447;DHT22;30152;52.066;5.358;2022-10-22T13:09:46;18.10;99.90
44447;DHT22;30152;52.066;5.358;2022-10-22T13:12:12;17.70;99.90
44447;DHT22;30152;52.066;5.358;2022-10-22T13:14:44;17.60;99.90
44447;DHT22;30152;52.066;5.358;2022-10-22T13:17:19;17.40;99.90
44447;DHT22;30152;52.066;5.358;2022-10-22T13:22:29;18.50;99.90
44447;DHT22;30152;52.066;5.358;2022-10-22T13:27:43;17.30;99.90
44447;DHT22;30152;52.066;5.358;2022-10-22T13:30:23;17.30;99.90
44447;DHT22;30152;52.066;5.358;2022-10-22T13:32:53;17.30;99.90
44447;DHT22;30152;52.066;5.358;2022-10-22T13:35:24;17.70;99.90
44447;DHT22;30152;52.066;5.358;2022-10-22T13:40:17;17.20;99.90
44447;DHT22;30152;52.066;5.358;2022-10-22T13:42:42;17.40;99.90
44447;DHT22;30152;52.066;5.358;2022-10-22T13:45:08;16.90;99.90
44447;DHT22;30152;52.066;5.358;2022-10-22T13:47:35;17.40;99.90
44447;DHT22;30152;52.066;5.358;2022-10-22T13:50:06;17.60;99.90
44447;DHT22;30152;52.066;5.358;2022-10-22T13:52:54;17.00;99.90
44447;DHT22;30152;52.066;5.358;2022-10-22T13:55:26;17.10;99.90
44447;DHT22;30152;52.066;5.358;2022-10-22T13:57:55;17.10;99.90
44447;DHT22;30152;52.066;5.358;2022-10-22T14:00:22;17.10;99.90
44447;DHT22;30152;52.066;5.358;2022-10-22T14:02:51;17.10;99.90
44447;DHT22;30152;52.066;5.358;2022-10-22T14:05:17;16.90;99.90
44447;DHT22;30152;52.066;5.358;2022-10-22T14:07:45;16.80;99.90
44447;DHT22;30152;52.066;5.358;2022-10-22T14:10:23;17.10;99.90
44447;DHT22;30152;52.066;5.358;2022-10-22T14:12:50;16.90;99.90
44447;DHT22;30152;52.066;5.358;2022-10-22T14:15:19;16.80;99.90
44447;DHT22;30152;52.066;5.358;2022-10-22T14:17:48;16.80;99.90
44447;DHT22;30152;52.066;5.358;2022-10-22T14:20:20;16.60;99.90
44447;DHT22;30152;52.066;5.358;2022-10-22T14:22:48;16.80;99.90
44447;DHT22;30152;52.066;5.358;2022-10-22T14:25:20;16.70;99.90
44447;DHT22;30152;52.066;5.358;2022-10-22T14:27:46;16.70;99.90
44447;DHT22;30152;52.066;5.358;2022-10-22T14:30:22;16.80;99.90
44447;DHT22;30152;52.066;5.358;2022-10-22T14:32:49;16.70;99.90
44447;DHT22;30152;52.066;5.358;2022-10-22T14:35:17;16.80;99.90
44447;DHT22;30152;52.066;5.358;2022-10-22T14:40:13;16.50;99.90
44447;DHT22;30152;52.066;5.358;2022-10-22T14:42:40;16.80;99.90
44447;DHT22;30152;52.066;5.358;2022-10-22T14:47:39;16.60;99.90
44447;DHT22;30152;52.066;5.358;2022-10-22T14:50:05;17.10;99.90
44447;DHT22;30152;52.066;5.358;2022-10-22T14:52:33;16.80;99.90
44447;DHT22;30152;52.066;5.358;2022-10-22T14:57:24;16.60;99.90
44447;DHT22;30152;52.066;5.358;2022-10-22T14:59:50;16.70;99.90
44447;DHT22;30152;52.066;5.358;2022-10-22T15:02:20;16.90;99.90
44447;DHT22;30152;52.066;5.358;2022-10-22T15:04:47;18.10;99.90
44447;DHT22;30152;52.066;5.358;2022-10-22T15:09:39;17.60;99.90
44447;DHT22;30152;52.066;5.358;2022-10-22T15:12:04;17.30;99.90
44447;DHT22;30152;52.066;5.358;2022-10-22T15:14:31;17.10;99.90
44447;DHT22;30152;52.066;5.358;2022-10-22T15:16:58;17.60;99.90
44447;DHT22;30152;52.066;5.358;2022-10-22T15:21:51;16.90;99.90
44447;DHT22;30152;52.066;5.358;2022-10-22T15:26:42;16.70;99.90
44447;DHT22;30152;52.066;5.358;2022-10-22T15:29:08;17.30;99.90
44447;DHT22;30152;52.066;5.358;2022-10-22T15:31:46;17.20;99.90
44447;DHT22;30152;52.066;5.358;2022-10-22T15:34:12;16.70;99.90
44447;DHT22;30152;52.066;5.358;2022-10-22T15:36:38;16.60;99.90
44447;DHT22;30152;52.066;5.358;2022-10-22T15:39:08;16.80;99.90
44447;DHT22;30152;52.066;5.358;2022-10-22T15:41:34;16.50;99.90
44447;DHT22;30152;52.066;5.358;2022-10-22T15:44:00;16.70;99.90
44447;DHT22;30152;52.066;5.358;2022-10-22T15:48:53;16.40;99.90
44447;DHT22;30152;52.066;5.358;2022-10-22T15:51:21;16.50;99.90
44447;DHT22;30152;52.066;5.358;2022-10-22T15:53:55;16.40;99.90
44447;DHT22;30152;52.066;5.358;2022-10-22T15:56:22;16.30;99.90
44447;DHT22;30152;52.066;5.358;2022-10-22T15:58:52;17.20;99.90
44447;DHT22;30152;52.066;5.358;2022-10-22T16:06:09;16.20;99.90
44447;DHT22;30152;52.066;5.358;2022-10-22T16:08:36;16.00;99.90
44447;DHT22;30152;52.066;5.358;2022-10-22T16:11:03;15.70;99.90
44447;DHT22;30152;52.066;5.358;2022-10-22T16:13:29;15.30;99.90
44447;DHT22;30152;52.066;5.358;2022-10-22T16:20:49;15.20;99.90
44447;DHT22;30152;52.066;5.358;2022-10-22T16:25:43;15.40;99.90
44447;DHT22;30152;52.066;5.358;2022-10-22T16:28:10;15.10;99.90
44447;DHT22;30152;52.066;5.358;2022-10-22T16:30:37;14.60;99.90
44447;DHT22;30152;52.066;5.358;2022-10-22T16:33:05;14.20;99.90
44447;DHT22;30152;52.066;5.358;2022-10-22T16:35:31;15.00;99.90
44447;DHT22;30152;52.066;5.358;2022-10-22T16:37:58;14.30;99.90
44447;DHT22;30152;52.066;5.358;2022-10-22T16:42:50;13.90;99.90
44447;DHT22;30152;52.066;5.358;2022-10-22T16:52:36;14.10;99.90
44447;DHT22;30152;52.066;5.358;2022-10-22T16:55:03;14.10;99.90
44447;DHT22;30152;52.066;5.358;2022-10-22T16:57:28;14.00;99.90
44447;DHT22;30152;52.066;5.358;2022-10-22T17:04:47;14.60;99.90
44447;DHT22;30152;52.066;5.358;2022-10-22T17:14:31;13.50;99.90
44447;DHT22;30152;52.066;5.358;2022-10-22T17:19:24;13.40;99.90
44447;DHT22;30152;52.066;5.358;2022-10-22T17:21:50;13.30;99.90
44447;DHT22;30152;52.066;5.358;2022-10-22T17:24:18;13.10;99.90
44447;DHT22;30152;52.066;5.358;2022-10-22T17:29:11;13.20;99.90
44447;DHT22;30152;52.066;5.358;2022-10-22T17:31:38;13.00;99.90
44447;DHT22;30152;52.066;5.358;2022-10-22T17:34:09;13.10;99.90
44447;DHT22;30152;52.066;5.358;2022-10-22T17:36:35;13.00;99.90
44447;DHT22;30152;52.066;5.358;2022-10-22T17:39:03;13.00;99.90
44447;DHT22;30152;52.066;5.358;2022-10-22T17:41:32;13.00;99.90
44447;DHT22;30152;52.066;5.358;2022-10-22T17:44:02;12.90;99.90
44447;DHT22;30152;52.066;5.358;2022-10-22T17:46:30;13.30;99.90
44447;DHT22;30152;52.066;5.358;2022-10-22T17:49:04;12.80;99.90
44447;DHT22;30152;52.066;5.358;2022-10-22T17:51:34;12.70;99.90
44447;DHT22;30152;52.066;5.358;2022-10-22T17:53:59;12.40;99.90
44447;DHT22;30152;52.066;5.358;2022-10-22T17:56:27;12.70;99.90
44447;DHT22;30152;52.066;5.358;2022-10-22T17:58:54;12.50;99.90
44447;DHT22;30152;52.066;5.358;2022-10-22T18:01:23;12.70;99.90
44447;DHT22;30152;52.066;5.358;2022-10-22T18:03:50;12.70;99.90
44447;DHT22;30152;52.066;5.358;2022-10-22T18:11:10;12.60;99.90
44447;DHT22;30152;52.066;5.358;2022-10-22T18:13:38;12.50;99.90
44447;DHT22;30152;52.066;5.358;2022-10-22T18:16:04;12.20;99.90
44447;DHT22;30152;52.066;5.358;2022-10-22T18:18:30;12.60;99.90
44447;DHT22;30152;52.066;5.358;2022-10-22T18:25:48;12.30;99.90
44447;DHT22;30152;52.066;5.358;2022-10-22T18:28:15;12.70;99.90
44447;DHT22;30152;52.066;5.358;2022-10-22T18:30:41;11.60;99.90
44447;DHT22;30152;52.066;5.358;2022-10-22T18:33:09;11.90;99.90
44447;DHT22;30152;52.066;5.358;2022-10-22T18:45:22;12.00;99.90
44447;DHT22;30152;52.066;5.358;2022-10-22T18:52:39;11.70;99.90
44447;DHT22;30152;52.066;5.358;2022-10-22T18:55:05;12.30;99.90
44447;DHT22;30152;52.066;5.358;2022-10-22T18:57:31;12.60;99.90
44447;DHT22;30152;52.066;5.358;2022-10-22T19:09:41;11.70;99.90
44447;DHT22;30152;52.066;5.358;2022-10-22T19:14:34;11.80;99.90
44447;DHT22;30152;52.066;5.358;2022-10-22T19:17:00;12.00;99.90
44447;DHT22;30152;52.066;5.358;2022-10-22T19:24:19;11.70;99.90
44447;DHT22;30152;52.066;5.358;2022-10-22T19:26:46;12.00;99.90
44447;DHT22;30152;52.066;5.358;2022-10-22T19:29:15;11.70;99.90
44447;DHT22;30152;52.066;5.358;2022-10-22T19:31:42;11.90;99.90
44447;DHT22;30152;52.066;5.358;2022-10-22T19:34:09;11.20;99.90
44447;DHT22;30152;52.066;5.358;2022-10-22T19:39:03;11.80;99.90
44447;DHT22;30152;52.066;5.358;2022-10-22T19:41:31;11.20;99.90
44447;DHT22;30152;52.066;5.358;2022-10-22T19:43:58;11.60;99.90
44447;DHT22;30152;52.066;5.358;2022-10-22T19:46:24;11.40;99.90
44447;DHT22;30152;52.066;5.358;2022-10-22T19:51:26;11.40;99.90
44447;DHT22;30152;52.066;5.358;2022-10-22T19:54:03;11.40;99.90
44447;DHT22;30152;52.066;5.358;2022-10-22T19:56:31;11.40;99.90
44447;DHT22;30152;52.066;5.358;2022-10-22T20:11:22;11.20;99.90
44447;DHT22;30152;52.066;5.358;2022-10-22T20:16:17;11.10;99.90
